sensor_id;sensor_type;location;lat;lon;timestamp;pressure;altitude;pressure_sealevel;temperature;humidity
21730;BME280;11027;51.030;13.812;2022-07-19T00:00:35;100708.84;;;21.37;46.59
21730;BME280;11027;51.030;13.812;2022-07-19T00:03:00;100708.84;;;21.37;46.75
21730;BME280;11027;51.030;13.812;2022-07-19T00:05:25;100717.75;;;21.40;46.55
21730;BME280;11027;51.030;13.812;2022-07-19T00:07:51;100717.75;;;21.40;46.47
21730;BME280;11027;51.030;13.812;2022-07-19T00:10:17;100729.91;;;21.38;46.66
21730;BME280;11027;51.030;13.812;2022-07-19T00:12:43;100721.00;;;21.36;46.65
21730;BME280;11027;51.030;13.812;2022-07-19T00:15:10;100721.72;;;21.32;46.95
21730;BME280;11027;51.030;13.812;2022-07-19T00:17:42;100724.72;;;21.30;46.98
21730;BME280;11027;51.030;13.812;2022-07-19T00:20:10;100724.72;;;21.30;46.84
21730;BME280;11027;51.030;13.812;2022-07-19T00:22:37;100725.22;;;21.27;47.20
21730;BME280;11027;51.030;13.812;2022-07-19T00:25:03;100718.47;;;21.23;47.07
21730;BME280;11027;51.030;13.812;2022-07-19T00:27:29;100717.59;;;21.23;46.98
21730;BME280;11027;51.030;13.812;2022-07-19T00:29:54;100723.25;;;21.16;47.26
21730;BME280;11027;51.030;13.812;2022-07-19T00:32:19;100719.25;;;21.12;47.54
21730;BME280;11027;51.030;13.812;2022-07-19T00:34:45;100718.66;;;21.10;47.71
21730;BME280;11027;51.030;13.812;2022-07-19T00:37:10;100719.16;;;21.07;47.72
21730;BME280;11027;51.030;13.812;2022-07-19T00:39:35;100716.38;;;21.07;47.79
21730;BME280;11027;51.030;13.812;2022-07-19T00:42:01;100721.31;;;21.05;47.71
21730;BME280;11027;51.030;13.812;2022-07-19T00:44:26;100727.31;;;21.02;47.72
21730;BME280;11027;51.030;13.812;2022-07-19T00:46:52;100718.00;;;20.96;47.98
21730;BME280;11027;51.030;13.812;2022-07-19T00:49:17;100719.34;;;20.93;48.01
21730;BME280;11027;51.030;13.812;2022-07-19T00:51:43;100718.13;;;20.89;48.36
21730;BME280;11027;51.030;13.812;2022-07-19T00:54:11;100716.41;;;20.88;48.23
21730;BME280;11027;51.030;13.812;2022-07-19T00:56:37;100712.44;;;20.84;48.19
21730;BME280;11027;51.030;13.812;2022-07-19T00:59:04;100727.47;;;20.76;48.50
21730;BME280;11027;51.030;13.812;2022-07-19T01:01:30;100720.56;;;20.67;48.70
21730;BME280;11027;51.030;13.812;2022-07-19T01:03:57;100721.28;;;20.63;48.66
21730;BME280;11027;51.030;13.812;2022-07-19T01:06:22;100723.25;;;20.55;48.79
21730;BME280;11027;51.030;13.812;2022-07-19T01:08:48;100727.56;;;20.51;49.41
21730;BME280;11027;51.030;13.812;2022-07-19T01:11:13;100724.41;;;20.48;49.21
21730;BME280;11027;51.030;13.812;2022-07-19T01:13:38;100721.63;;;20.48;49.55
21730;BME280;11027;51.030;13.812;2022-07-19T01:16:04;100726.31;;;20.47;49.56
21730;BME280;11027;51.030;13.812;2022-07-19T01:18:30;100712.81;;;20.39;49.73
21730;BME280;11027;51.030;13.812;2022-07-19T01:20:57;100728.63;;;20.32;49.66
21730;BME280;11027;51.030;13.812;2022-07-19T01:23:23;100721.25;;;20.26;50.11
21730;BME280;11027;51.030;13.812;2022-07-19T01:25:48;100724.50;;;20.23;49.96
21730;BME280;11027;51.030;13.812;2022-07-19T01:28:13;100724.97;;;20.19;50.24
21730;BME280;11027;51.030;13.812;2022-07-19T01:30:39;100719.41;;;20.19;49.98
21730;BME280;11027;51.030;13.812;2022-07-19T01:33:04;100723.28;;;20.18;50.28
21730;BME280;11027;51.030;13.812;2022-07-19T01:35:30;100719.91;;;20.16;50.43
21730;BME280;11027;51.030;13.812;2022-07-19T01:37:55;100720.13;;;20.15;50.30
21730;BME280;11027;51.030;13.812;2022-07-19T01:40:21;100720.34;;;20.13;50.39
21730;BME280;11027;51.030;13.812;2022-07-19T01:42:47;100715.50;;;20.09;50.76
21730;BME280;11027;51.030;13.812;2022-07-19T01:45:13;100704.66;;;20.07;50.95
21730;BME280;11027;51.030;13.812;2022-07-19T01:47:39;100708.53;;;20.06;50.80
21730;BME280;11027;51.030;13.812;2022-07-19T01:50:06;100706.69;;;20.00;50.86
21730;BME280;11027;51.030;13.812;2022-07-19T01:52:32;100710.38;;;19.94;51.27
21730;BME280;11027;51.030;13.812;2022-07-19T01:54:57;100710.38;;;19.94;51.26
21730;BME280;11027;51.030;13.812;2022-07-19T01:57:22;100710.81;;;19.91;51.43
21730;BME280;11027;51.030;13.812;2022-07-19T01:59:48;100704.06;;;19.87;51.58
21730;BME280;11027;51.030;13.812;2022-07-19T02:02:13;100703.22;;;19.86;51.43
21730;BME280;11027;51.030;13.812;2022-07-19T02:04:38;100708.81;;;19.80;51.72
21730;BME280;11027;51.030;13.812;2022-07-19T02:07:04;100705.88;;;19.74;51.91
21730;BME280;11027;51.030;13.812;2022-07-19T02:09:29;100710.16;;;19.70;52.02
21730;BME280;11027;51.030;13.812;2022-07-19T02:11:54;100707.69;;;19.62;52.20
21730;BME280;11027;51.030;13.812;2022-07-19T02:14:19;100711.50;;;19.61;52.01
21730;BME280;11027;51.030;13.812;2022-07-19T02:16:45;100706.22;;;19.59;52.57
21730;BME280;11027;51.030;13.812;2022-07-19T02:19:10;100705.97;;;19.61;52.52
21730;BME280;11027;51.030;13.812;2022-07-19T02:21:37;100707.06;;;19.60;52.52
21730;BME280;11027;51.030;13.812;2022-07-19T02:24:04;100709.81;;;19.60;52.46
21730;BME280;11027;51.030;13.812;2022-07-19T02:26:29;100708.13;;;19.59;52.52
21730;BME280;11027;51.030;13.812;2022-07-19T02:28:55;100705.84;;;19.56;52.56
21730;BME280;11027;51.030;13.812;2022-07-19T02:31:20;100706.88;;;19.55;52.72
21730;BME280;11027;51.030;13.812;2022-07-19T02:33:45;100698.44;;;19.50;52.46
21730;BME280;11027;51.030;13.812;2022-07-19T02:36:11;100701.28;;;19.43;53.17
21730;BME280;11027;51.030;13.812;2022-07-19T02:38:36;100697.91;;;19.41;53.05
21730;BME280;11027;51.030;13.812;2022-07-19T02:41:02;100700.66;;;19.41;52.92
21730;BME280;11027;51.030;13.812;2022-07-19T02:43:27;100701.94;;;19.38;53.14
21730;BME280;11027;51.030;13.812;2022-07-19T02:45:53;100702.41;;;19.35;53.22
21730;BME280;11027;51.030;13.812;2022-07-19T02:48:18;100707.97;;;19.29;53.17
21730;BME280;11027;51.030;13.812;2022-07-19T02:50:43;100709.28;;;19.26;53.28
21730;BME280;11027;51.030;13.812;2022-07-19T02:53:08;100698.69;;;19.23;53.28
21730;BME280;11027;51.030;13.812;2022-07-19T02:55:34;100709.72;;;19.23;53.30
21730;BME280;11027;51.030;13.812;2022-07-19T02:57:59;100704.66;;;19.20;53.68
21730;BME280;11027;51.030;13.812;2022-07-19T03:00:25;100701.25;;;19.18;53.51
21730;BME280;11027;51.030;13.812;2022-07-19T03:02:50;100698.34;;;19.13;53.54
21730;BME280;11027;51.030;13.812;2022-07-19T03:05:16;100696.63;;;19.12;53.81
21730;BME280;11027;51.030;13.812;2022-07-19T03:07:41;100694.50;;;19.14;53.76
21730;BME280;11027;51.030;13.812;2022-07-19T03:10:07;100701.09;;;19.13;54.09
21730;BME280;11027;51.030;13.812;2022-07-19T03:12:33;100707.06;;;19.10;53.79
21730;BME280;11027;51.030;13.812;2022-07-19T03:14:58;100699.25;;;19.07;54.02
21730;BME280;11027;51.030;13.812;2022-07-19T03:17:23;100706.44;;;19.08;54.36
21730;BME280;11027;51.030;13.812;2022-07-19T03:19:49;100709.00;;;19.03;54.32
21730;BME280;11027;51.030;13.812;2022-07-19T03:22:14;100701.41;;;18.98;54.51
21730;BME280;11027;51.030;13.812;2022-07-19T03:24:39;100705.47;;;18.95;54.61
21730;BME280;11027;51.030;13.812;2022-07-19T03:27:04;100709.91;;;18.96;54.48
21730;BME280;11027;51.030;13.812;2022-07-19T03:29:30;100701.00;;;18.94;54.40
21730;BME280;11027;51.030;13.812;2022-07-19T03:31:56;100709.06;;;18.96;54.79
21730;BME280;11027;51.030;13.812;2022-07-19T03:34:21;100712.03;;;18.94;54.73
21730;BME280;11027;51.030;13.812;2022-07-19T03:36:46;100715.88;;;18.93;54.61
21730;BME280;11027;51.030;13.812;2022-07-19T03:39:11;100706.97;;;18.91;54.96
21730;BME280;11027;51.030;13.812;2022-07-19T03:41:37;100714.81;;;18.94;54.80
21730;BME280;11027;51.030;13.812;2022-07-19T03:44:02;100711.19;;;18.94;54.69
21730;BME280;11027;51.030;13.812;2022-07-19T03:46:27;100718.88;;;18.92;54.84
21730;BME280;11027;51.030;13.812;2022-07-19T03:48:54;100713.13;;;18.93;54.88
21730;BME280;11027;51.030;13.812;2022-07-19T03:51:20;100719.69;;;18.92;54.56
21730;BME280;11027;51.030;13.812;2022-07-19T03:53:45;100721.41;;;18.93;54.75
21730;BME280;11027;51.030;13.812;2022-07-19T03:56:12;100717.56;;;18.94;54.78
21730;BME280;11027;51.030;13.812;2022-07-19T03:58:38;100715.44;;;18.96;55.01
21730;BME280;11027;51.030;13.812;2022-07-19T04:01:03;100719.28;;;18.95;55.11
21730;BME280;11027;51.030;13.812;2022-07-19T04:03:28;100717.97;;;18.98;55.07
21730;BME280;11027;51.030;13.812;2022-07-19T04:05:54;100731.16;;;18.96;55.04
21730;BME280;11027;51.030;13.812;2022-07-19T04:08:19;100724.78;;;18.95;54.94
21730;BME280;11027;51.030;13.812;2022-07-19T04:10:44;100729.47;;;18.95;55.11
21730;BME280;11027;51.030;13.812;2022-07-19T04:13:10;100721.56;;;18.98;54.80
21730;BME280;11027;51.030;13.812;2022-07-19T04:15:35;100721.56;;;18.98;54.90
21730;BME280;11027;51.030;13.812;2022-07-19T04:18:00;100737.09;;;18.99;55.04
21730;BME280;11027;51.030;13.812;2022-07-19T04:20:26;100730.94;;;18.97;54.97
21730;BME280;11027;51.030;13.812;2022-07-19T04:22:51;100723.72;;;18.96;55.21
21730;BME280;11027;51.030;13.812;2022-07-19T04:25:16;100725.63;;;18.96;54.99
21730;BME280;11027;51.030;13.812;2022-07-19T04:27:41;100727.97;;;18.99;55.09
21730;BME280;11027;51.030;13.812;2022-07-19T04:30:07;100723.53;;;18.91;55.33
21730;BME280;11027;51.030;13.812;2022-07-19T04:32:33;100724.38;;;18.92;55.15
21730;BME280;11027;51.030;13.812;2022-07-19T04:34:59;100724.78;;;18.95;55.24
21730;BME280;11027;51.030;13.812;2022-07-19T04:37:24;100720.94;;;18.96;55.27
21730;BME280;11027;51.030;13.812;2022-07-19T04:39:50;100726.03;;;18.99;55.33
21730;BME280;11027;51.030;13.812;2022-07-19T04:42:15;100729.84;;;18.98;55.45
21730;BME280;11027;51.030;13.812;2022-07-19T04:44:40;100729.00;;;18.98;55.65
21730;BME280;11027;51.030;13.812;2022-07-19T04:47:05;100720.53;;;18.99;55.56
21730;BME280;11027;51.030;13.812;2022-07-19T04:49:31;100721.75;;;19.04;55.64
21730;BME280;11027;51.030;13.812;2022-07-19T04:51:56;100721.34;;;19.07;55.27
21730;BME280;11027;51.030;13.812;2022-07-19T04:54:21;100726.38;;;19.10;55.44
21730;BME280;11027;51.030;13.812;2022-07-19T04:56:46;100726.78;;;19.13;55.44
21730;BME280;11027;51.030;13.812;2022-07-19T04:59:12;100721.69;;;19.17;55.05
21730;BME280;11027;51.030;13.812;2022-07-19T05:01:37;100723.34;;;19.18;55.11
21730;BME280;11027;51.030;13.812;2022-07-19T05:04:02;100718.66;;;19.18;55.42
21730;BME280;11027;51.030;13.812;2022-07-19T05:06:28;100724.59;;;19.22;55.06
21730;BME280;11027;51.030;13.812;2022-07-19T05:08:53;100721.16;;;19.27;55.11
21730;BME280;11027;51.030;13.812;2022-07-19T05:11:19;100722.03;;;19.27;54.90
21730;BME280;11027;51.030;13.812;2022-07-19T05:13:45;100720.72;;;19.30;54.93
21730;BME280;11027;51.030;13.812;2022-07-19T05:16:10;100718.56;;;19.32;54.54
21730;BME280;11027;51.030;13.812;2022-07-19T05:18:35;100710.47;;;19.37;54.96
21730;BME280;11027;51.030;13.812;2022-07-19T05:21:01;100719.38;;;19.39;54.66
21730;BME280;11027;51.030;13.812;2022-07-19T05:23:26;100721.25;;;19.45;54.77
21730;BME280;11027;51.030;13.812;2022-07-19T05:25:51;100714.19;;;19.49;54.60
21730;BME280;11027;51.030;13.812;2022-07-19T05:28:16;100714.56;;;19.53;55.11
21730;BME280;11027;51.030;13.812;2022-07-19T05:30:42;100718.81;;;19.55;54.56
21730;BME280;11027;51.030;13.812;2022-07-19T05:33:08;100713.66;;;19.59;54.62
21730;BME280;11027;51.030;13.812;2022-07-19T05:35:36;100718.50;;;19.64;54.40
21730;BME280;11027;51.030;13.812;2022-07-19T05:40:54;100711.88;;;19.71;54.19
21730;BME280;11027;51.030;13.812;2022-07-19T05:43:20;100711.41;;;19.74;54.12
21730;BME280;11027;51.030;13.812;2022-07-19T05:45:45;100710.97;;;19.77;53.87
21730;BME280;11027;51.030;13.812;2022-07-19T05:48:10;100717.75;;;19.82;53.84
21730;BME280;11027;51.030;13.812;2022-07-19T05:50:35;100711.72;;;19.85;53.84
21730;BME280;11027;51.030;13.812;2022-07-19T05:53:01;100714.69;;;19.90;53.80
21730;BME280;11027;51.030;13.812;2022-07-19T05:55:26;100709.50;;;19.93;53.56
21730;BME280;11027;51.030;13.812;2022-07-19T05:57:51;100708.84;;;19.98;53.61
21730;BME280;11027;51.030;13.812;2022-07-19T06:00:16;100710.06;;;20.02;53.23
21730;BME280;11027;51.030;13.812;2022-07-19T06:02:42;100706.81;;;20.05;53.42
21730;BME280;11027;51.030;13.812;2022-07-19T06:05:08;100699.13;;;20.07;53.40
21730;BME280;11027;51.030;13.812;2022-07-19T06:07:34;100705.06;;;20.11;53.04
21730;BME280;11027;51.030;13.812;2022-07-19T06:10:00;100709.28;;;20.13;53.09
21730;BME280;11027;51.030;13.812;2022-07-19T06:12:27;100708.84;;;20.16;53.17
21730;BME280;11027;51.030;13.812;2022-07-19T06:14:52;100715.59;;;20.21;53.18
21730;BME280;11027;51.030;13.812;2022-07-19T06:17:17;100717.88;;;20.24;53.19
21730;BME280;11027;51.030;13.812;2022-07-19T06:19:42;100710.81;;;20.28;53.02
21730;BME280;11027;51.030;13.812;2022-07-19T06:22:07;100708.66;;;20.30;53.30
21730;BME280;11027;51.030;13.812;2022-07-19T06:24:33;100711.81;;;20.33;53.08
21730;BME280;11027;51.030;13.812;2022-07-19T06:26:58;100714.13;;;20.36;52.80
21730;BME280;11027;51.030;13.812;2022-07-19T06:29:23;100710.66;;;20.41;53.20
21730;BME280;11027;51.030;13.812;2022-07-19T06:31:48;100702.50;;;20.46;53.31
21730;BME280;11027;51.030;13.812;2022-07-19T06:34:14;100714.31;;;20.53;53.05
21730;BME280;11027;51.030;13.812;2022-07-19T06:36:39;100708.06;;;20.58;52.88
21730;BME280;11027;51.030;13.812;2022-07-19T06:39:04;100720.19;;;20.64;52.97
21730;BME280;11027;51.030;13.812;2022-07-19T06:41:30;100712.03;;;20.69;52.59
21730;BME280;11027;51.030;13.812;2022-07-19T06:43:55;100699.41;;;20.73;52.63
21730;BME280;11027;51.030;13.812;2022-07-19T06:46:20;100703.38;;;20.77;52.52
21730;BME280;11027;51.030;13.812;2022-07-19T06:48:45;100707.38;;;20.81;52.32
21730;BME280;11027;51.030;13.812;2022-07-19T06:51:11;100711.38;;;20.85;52.33
21730;BME280;11027;51.030;13.812;2022-07-19T06:53:36;100707.41;;;20.93;51.96
21730;BME280;11027;51.030;13.812;2022-07-19T06:56:01;100703.94;;;20.97;52.01
21730;BME280;11027;51.030;13.812;2022-07-19T06:58:27;100708.53;;;21.04;51.50
21730;BME280;11027;51.030;13.812;2022-07-19T07:00:54;100707.56;;;21.10;51.53
21730;BME280;11027;51.030;13.812;2022-07-19T07:03:19;100710.00;;;21.18;51.33
21730;BME280;11027;51.030;13.812;2022-07-19T07:05:45;100695.78;;;21.26;51.45
21730;BME280;11027;51.030;13.812;2022-07-19T07:08:10;100699.09;;;21.35;51.07
21730;BME280;11027;51.030;13.812;2022-07-19T07:10:35;100701.97;;;21.40;51.02
21730;BME280;11027;51.030;13.812;2022-07-19T07:13:00;100702.97;;;21.46;51.24
21730;BME280;11027;51.030;13.812;2022-07-19T07:15:26;100697.06;;;21.54;50.90
21730;BME280;11027;51.030;13.812;2022-07-19T07:17:51;100690.06;;;21.63;50.60
21730;BME280;11027;51.030;13.812;2022-07-19T07:20:16;100693.56;;;21.70;50.45
21730;BME280;11027;51.030;13.812;2022-07-19T07:22:42;100690.56;;;21.84;49.98
21730;BME280;11027;51.030;13.812;2022-07-19T07:25:07;100692.09;;;21.91;49.64
21730;BME280;11027;51.030;13.812;2022-07-19T07:27:33;100687.50;;;21.97;49.64
21730;BME280;11027;51.030;13.812;2022-07-19T07:29:58;100685.47;;;22.04;49.20
21730;BME280;11027;51.030;13.812;2022-07-19T07:32:23;100685.31;;;22.11;48.73
21730;BME280;11027;51.030;13.812;2022-07-19T07:34:51;100679.63;;;22.17;48.58
21730;BME280;11027;51.030;13.812;2022-07-19T07:37:16;100681.69;;;22.22;47.83
21730;BME280;11027;51.030;13.812;2022-07-19T07:39:42;100683.22;;;22.30;47.80
21730;BME280;11027;51.030;13.812;2022-07-19T07:42:07;100685.06;;;22.36;47.07
21730;BME280;11027;51.030;13.812;2022-07-19T07:44:32;100678.00;;;22.45;47.20
21730;BME280;11027;51.030;13.812;2022-07-19T07:46:58;100677.59;;;22.53;46.88
21730;BME280;11027;51.030;13.812;2022-07-19T07:49:23;100672.75;;;22.61;46.38
21730;BME280;11027;51.030;13.812;2022-07-19T07:51:48;100669.22;;;22.65;46.40
21730;BME280;11027;51.030;13.812;2022-07-19T07:54:14;100670.19;;;22.71;46.13
21730;BME280;11027;51.030;13.812;2022-07-19T07:56:40;100671.94;;;22.77;45.93
21730;BME280;11027;51.030;13.812;2022-07-19T07:59:05;100670.13;;;22.83;45.72
21730;BME280;11027;51.030;13.812;2022-07-19T08:01:30;100668.25;;;22.88;45.62
21730;BME280;11027;51.030;13.812;2022-07-19T08:03:56;100670.13;;;23.00;45.11
21730;BME280;11027;51.030;13.812;2022-07-19T08:06:21;100663.59;;;23.06;45.07
21730;BME280;11027;51.030;13.812;2022-07-19T08:08:47;100668.41;;;23.10;44.88
21730;BME280;11027;51.030;13.812;2022-07-19T08:11:12;100673.22;;;23.15;44.70
21730;BME280;11027;51.030;13.812;2022-07-19T08:13:37;100667.47;;;23.22;44.28
21730;BME280;11027;51.030;13.812;2022-07-19T08:16:03;100664.78;;;23.27;44.41
21730;BME280;11027;51.030;13.812;2022-07-19T08:18:28;100655.16;;;23.34;43.86
21730;BME280;11027;51.030;13.812;2022-07-19T08:20:54;100664.19;;;23.42;43.91
21730;BME280;11027;51.030;13.812;2022-07-19T08:23:19;100663.66;;;23.45;43.40
21730;BME280;11027;51.030;13.812;2022-07-19T08:25:44;100654.06;;;23.52;42.84
21730;BME280;11027;51.030;13.812;2022-07-19T08:28:09;100655.13;;;23.68;42.42
21730;BME280;11027;51.030;13.812;2022-07-19T08:30:35;100645.50;;;23.76;42.02
21730;BME280;11027;51.030;13.812;2022-07-19T08:33:01;100646.75;;;23.85;41.63
21730;BME280;11027;51.030;13.812;2022-07-19T08:35:26;100641.34;;;23.95;41.21
21730;BME280;11027;51.030;13.812;2022-07-19T08:37:51;100639.34;;;24.13;40.49
21730;BME280;11027;51.030;13.812;2022-07-19T08:40:16;100633.56;;;24.20;40.10
21730;BME280;11027;51.030;13.812;2022-07-19T08:42:42;100630.19;;;24.17;39.65
21730;BME280;11027;51.030;13.812;2022-07-19T08:45:10;100636.94;;;24.22;39.65
21730;BME280;11027;51.030;13.812;2022-07-19T08:47:36;100631.81;;;24.35;39.08
21730;BME280;11027;51.030;13.812;2022-07-19T08:50:07;100638.69;;;24.50;38.59
21730;BME280;11027;51.030;13.812;2022-07-19T08:52:33;100627.94;;;24.59;38.47
21730;BME280;11027;51.030;13.812;2022-07-19T08:54:59;100631.91;;;24.68;38.29
21730;BME280;11027;51.030;13.812;2022-07-19T08:57:24;100623.03;;;24.71;38.12
21730;BME280;11027;51.030;13.812;2022-07-19T09:00:09;100633.63;;;24.74;38.13
21730;BME280;11027;51.030;13.812;2022-07-19T09:02:35;100620.84;;;24.78;37.48
21730;BME280;11027;51.030;13.812;2022-07-19T09:05:04;100622.28;;;24.81;37.44
21730;BME280;11027;51.030;13.812;2022-07-19T09:07:32;100627.88;;;24.81;37.16
21730;BME280;11027;51.030;13.812;2022-07-19T09:10:17;100626.63;;;24.99;35.93
21730;BME280;11027;51.030;13.812;2022-07-19T09:13:03;100617.28;;;25.15;35.90
21730;BME280;11027;51.030;13.812;2022-07-19T09:15:48;100619.53;;;25.18;35.70
21730;BME280;11027;51.030;13.812;2022-07-19T09:18:28;100613.03;;;25.40;35.30
21730;BME280;11027;51.030;13.812;2022-07-19T09:20:57;100615.25;;;25.38;36.28
21730;BME280;11027;51.030;13.812;2022-07-19T09:23:24;100614.13;;;25.39;36.09
21730;BME280;11027;51.030;13.812;2022-07-19T09:25:52;100612.97;;;25.34;36.21
21730;BME280;11027;51.030;13.812;2022-07-19T09:28:19;100615.75;;;25.29;36.04
21730;BME280;11027;51.030;13.812;2022-07-19T09:30:48;100615.69;;;25.24;36.52
21730;BME280;11027;51.030;13.812;2022-07-19T09:33:20;100613.94;;;25.13;37.08
21730;BME280;11027;51.030;13.812;2022-07-19T09:35:47;100608.88;;;25.10;37.04
21730;BME280;11027;51.030;13.812;2022-07-19T09:38:19;100607.38;;;25.29;36.27
21730;BME280;11027;51.030;13.812;2022-07-19T09:40:46;100608.53;;;25.33;36.00
21730;BME280;11027;51.030;13.812;2022-07-19T09:43:12;100603.97;;;25.65;35.19
21730;BME280;11027;51.030;13.812;2022-07-19T09:45:38;100612.25;;;25.92;35.46
21730;BME280;11027;51.030;13.812;2022-07-19T09:48:03;100604.50;;;26.20;34.50
21730;BME280;11027;51.030;13.812;2022-07-19T09:50:29;100610.97;;;26.30;33.84
21730;BME280;11027;51.030;13.812;2022-07-19T09:52:58;100604.56;;;26.35;33.59
21730;BME280;11027;51.030;13.812;2022-07-19T09:55:24;100604.59;;;26.40;33.31
21730;BME280;11027;51.030;13.812;2022-07-19T09:57:51;100606.25;;;26.41;33.11
21730;BME280;11027;51.030;13.812;2022-07-19T10:00:18;100602.59;;;26.35;33.42
21730;BME280;11027;51.030;13.812;2022-07-19T10:02:48;100597.56;;;26.32;33.35
21730;BME280;11027;51.030;13.812;2022-07-19T10:05:14;100596.72;;;26.27;33.71
21730;BME280;11027;51.030;13.812;2022-07-19T10:07:40;100593.91;;;26.22;33.71
21730;BME280;11027;51.030;13.812;2022-07-19T10:10:07;100595.31;;;26.24;33.63
21730;BME280;11027;51.030;13.812;2022-07-19T10:12:36;100586.63;;;26.10;34.09
21730;BME280;11027;51.030;13.812;2022-07-19T10:15:03;100587.69;;;25.99;34.26
21730;BME280;11027;51.030;13.812;2022-07-19T10:20:03;100589.00;;;25.86;34.49
21730;BME280;11027;51.030;13.812;2022-07-19T10:22:30;100589.91;;;25.97;34.15
21730;BME280;11027;51.030;13.812;2022-07-19T10:24:58;100590.53;;;26.14;33.75
21730;BME280;11027;51.030;13.812;2022-07-19T10:30:16;100577.78;;;26.44;33.75
21730;BME280;11027;51.030;13.812;2022-07-19T10:32:43;100576.91;;;26.33;33.74
21730;BME280;11027;51.030;13.812;2022-07-19T10:35:28;100572.44;;;26.48;33.71
21730;BME280;11027;51.030;13.812;2022-07-19T10:40:43;100570.28;;;26.70;32.47
21730;BME280;11027;51.030;13.812;2022-07-19T10:43:10;100567.19;;;26.72;32.54
21730;BME280;11027;51.030;13.812;2022-07-19T10:45:37;100573.38;;;26.69;32.52
21730;BME280;11027;51.030;13.812;2022-07-19T10:48:06;100566.66;;;26.85;31.86
21730;BME280;11027;51.030;13.812;2022-07-19T10:50:42;100562.16;;;27.10;31.40
21730;BME280;11027;51.030;13.812;2022-07-19T10:53:08;100559.91;;;27.22;31.30
21730;BME280;11027;51.030;13.812;2022-07-19T10:55:33;100556.00;;;27.33;31.13
21730;BME280;11027;51.030;13.812;2022-07-19T11:00:45;100553.94;;;27.65;31.12
21730;BME280;11027;51.030;13.812;2022-07-19T11:08:13;100550.13;;;28.05;29.38
21730;BME280;11027;51.030;13.812;2022-07-19T11:10:39;100548.38;;;28.20;29.38
21730;BME280;11027;51.030;13.812;2022-07-19T11:13:05;100549.44;;;28.34;29.09
21730;BME280;11027;51.030;13.812;2022-07-19T11:15:30;100548.22;;;28.45;28.95
21730;BME280;11027;51.030;13.812;2022-07-19T11:17:58;100543.38;;;28.61;28.64
21730;BME280;11027;51.030;13.812;2022-07-19T11:20:28;100532.03;;;28.77;28.29
21730;BME280;11027;51.030;13.812;2022-07-19T11:22:55;100536.13;;;28.89;28.58
21730;BME280;11027;51.030;13.812;2022-07-19T11:25:29;100528.16;;;29.02;28.74
21730;BME280;11027;51.030;13.812;2022-07-19T11:27:55;100526.06;;;29.18;28.14
21730;BME280;11027;51.030;13.812;2022-07-19T11:30:23;100519.97;;;29.35;28.30
21730;BME280;11027;51.030;13.812;2022-07-19T11:33:00;100513.03;;;29.51;28.26
21730;BME280;11027;51.030;13.812;2022-07-19T11:35:26;100520.22;;;29.62;28.41
21730;BME280;11027;51.030;13.812;2022-07-19T11:37:54;100519.53;;;29.70;27.56
21730;BME280;11027;51.030;13.812;2022-07-19T11:40:21;100512.75;;;29.77;27.58
21730;BME280;11027;51.030;13.812;2022-07-19T11:42:47;100516.03;;;29.84;27.58
21730;BME280;11027;51.030;13.812;2022-07-19T11:45:20;100510.88;;;29.91;27.69
21730;BME280;11027;51.030;13.812;2022-07-19T11:47:51;100504.91;;;29.98;27.10
21730;BME280;11027;51.030;13.812;2022-07-19T11:50:19;100511.25;;;30.03;27.63
21730;BME280;11027;51.030;13.812;2022-07-19T11:52:50;100509.75;;;30.11;27.47
21730;BME280;11027;51.030;13.812;2022-07-19T11:55:17;100504.59;;;30.18;26.90
21730;BME280;11027;51.030;13.812;2022-07-19T11:57:43;100509.81;;;30.25;27.18
21730;BME280;11027;51.030;13.812;2022-07-19T12:00:10;100506.34;;;30.33;26.83
21730;BME280;11027;51.030;13.812;2022-07-19T12:05:27;100495.41;;;30.50;26.99
21730;BME280;11027;51.030;13.812;2022-07-19T12:07:54;100494.06;;;30.62;26.94
21730;BME280;11027;51.030;13.812;2022-07-19T12:10:43;100501.72;;;30.75;26.48
21730;BME280;11027;51.030;13.812;2022-07-19T12:13:14;100495.69;;;30.82;25.80
21730;BME280;11027;51.030;13.812;2022-07-19T12:15:53;100498.97;;;30.89;25.91
21730;BME280;11027;51.030;13.812;2022-07-19T12:18:21;100487.63;;;30.94;25.77
21730;BME280;11027;51.030;13.812;2022-07-19T12:23:40;100472.84;;;31.16;25.79
21730;BME280;11027;51.030;13.812;2022-07-19T12:26:06;100482.25;;;31.25;25.47
21730;BME280;11027;51.030;13.812;2022-07-19T12:28:32;100487.66;;;31.36;24.75
21730;BME280;11027;51.030;13.812;2022-07-19T12:31:04;100483.38;;;31.38;24.72
21730;BME280;11027;51.030;13.812;2022-07-19T12:33:30;100475.41;;;31.45;24.48
21730;BME280;11027;51.030;13.812;2022-07-19T12:35:55;100476.00;;;31.56;24.41
21730;BME280;11027;51.030;13.812;2022-07-19T12:38:31;100468.28;;;31.62;24.23
21730;BME280;11027;51.030;13.812;2022-07-19T12:41:05;100469.53;;;31.69;24.21
21730;BME280;11027;51.030;13.812;2022-07-19T12:43:31;100462.66;;;31.76;24.08
21730;BME280;11027;51.030;13.812;2022-07-19T12:45:59;100456.25;;;31.84;24.24
21730;BME280;11027;51.030;13.812;2022-07-19T12:48:26;100459.66;;;31.95;24.72
21730;BME280;11027;51.030;13.812;2022-07-19T12:50:52;100456.31;;;32.06;24.60
21730;BME280;11027;51.030;13.812;2022-07-19T12:53:17;100447.00;;;32.20;24.02
21730;BME280;11027;51.030;13.812;2022-07-19T12:55:43;100448.91;;;32.33;24.21
21730;BME280;11027;51.030;13.812;2022-07-19T12:58:10;100449.66;;;32.47;24.22
21730;BME280;11027;51.030;13.812;2022-07-19T13:00:36;100445.47;;;32.59;23.73